sensor_id;sensor_type;location;lat;lon;timestamp;pressure;altitude;pressure_sealevel;temperature;humidity
57572;BME280;44459;43.522;24.470;2022-07-29T00:02:20;100202.19;;;23.11;78.07
57572;BME280;44459;43.522;24.470;2022-07-29T00:04:45;100202.38;;;23.06;78.37
57572;BME280;44459;43.522;24.470;2022-07-29T00:07:11;100189.94;;;23.03;78.51
57572;BME280;44459;43.522;24.470;2022-07-29T00:09:36;100198.16;;;23.00;78.80
57572;BME280;44459;43.522;24.470;2022-07-29T00:12:02;100191.94;;;22.98;78.95
57572;BME280;44459;43.522;24.470;2022-07-29T00:14:27;100195.59;;;22.97;79.07
57572;BME280;44459;43.522;24.470;2022-07-29T00:16:52;100190.31;;;22.94;78.83
57572;BME280;44459;43.522;24.470;2022-07-29T00:19:18;100187.78;;;22.91;78.95
57572;BME280;44459;43.522;24.470;2022-07-29T00:21:43;100191.50;;;22.89;79.65
57572;BME280;44459;43.522;24.470;2022-07-29T00:24:08;100196.94;;;22.87;79.49
57572;BME280;44459;43.522;24.470;2022-07-29T00:26:34;100197.03;;;22.86;79.64
57572;BME280;44459;43.522;24.470;2022-07-29T00:28:59;100193.53;;;22.84;79.73
57572;BME280;44459;43.522;24.470;2022-07-29T00:31:25;100191.78;;;22.83;79.81
57572;BME280;44459;43.522;24.470;2022-07-29T00:33:51;100200.78;;;22.82;80.02
57572;BME280;44459;43.522;24.470;2022-07-29T00:36:16;100199.84;;;22.83;80.00
57572;BME280;44459;43.522;24.470;2022-07-29T00:38:41;100197.31;;;22.80;80.03
57572;BME280;44459;43.522;24.470;2022-07-29T00:41:10;100185.66;;;22.79;80.01
57572;BME280;44459;43.522;24.470;2022-07-29T00:43:35;100181.22;;;22.78;80.23
57572;BME280;44459;43.522;24.470;2022-07-29T00:46:00;100178.50;;;22.78;80.13
57572;BME280;44459;43.522;24.470;2022-07-29T00:48:26;100174.06;;;22.77;80.26
57572;BME280;44459;43.522;24.470;2022-07-29T00:50:51;100175.97;;;22.75;80.28
57572;BME280;44459;43.522;24.470;2022-07-29T00:53:17;100185.94;;;22.73;80.57
57572;BME280;44459;43.522;24.470;2022-07-29T00:55:45;100177.91;;;22.72;80.45
57572;BME280;44459;43.522;24.470;2022-07-29T00:58:11;100188.69;;;22.72;80.61
57572;BME280;44459;43.522;24.470;2022-07-29T01:00:37;100182.41;;;22.71;80.71
57572;BME280;44459;43.522;24.470;2022-07-29T01:03:05;100189.56;;;22.72;81.22
57572;BME280;44459;43.522;24.470;2022-07-29T01:05:31;100184.31;;;22.69;80.92
57572;BME280;44459;43.522;24.470;2022-07-29T01:07:56;100187.06;;;22.68;80.35
57572;BME280;44459;43.522;24.470;2022-07-29T01:10:22;100196.31;;;22.61;80.53
57572;BME280;44459;43.522;24.470;2022-07-29T01:12:49;100207.16;;;22.59;81.08
57572;BME280;44459;43.522;24.470;2022-07-29T01:15:15;100208.28;;;22.12;83.11
57572;BME280;44459;43.522;24.470;2022-07-29T01:17:52;100212.41;;;21.98;83.88
57572;BME280;44459;43.522;24.470;2022-07-29T01:20:24;100213.66;;;22.12;83.32
57572;BME280;44459;43.522;24.470;2022-07-29T01:23:06;100210.66;;;22.19;83.29
57572;BME280;44459;43.522;24.470;2022-07-29T01:31:00;100213.66;;;21.67;84.51
57572;BME280;44459;43.522;24.470;2022-07-29T01:33:27;100214.03;;;21.57;84.63
57572;BME280;44459;43.522;24.470;2022-07-29T01:36:35;100211.78;;;21.47;84.44
57572;BME280;44459;43.522;24.470;2022-07-29T01:39:01;100220.84;;;21.44;84.95
57572;BME280;44459;43.522;24.470;2022-07-29T01:41:27;100221.22;;;21.57;84.62
57572;BME280;44459;43.522;24.470;2022-07-29T01:43:57;100219.84;;;21.47;85.17
57572;BME280;44459;43.522;24.470;2022-07-29T01:46:28;100223.13;;;21.55;84.91
57572;BME280;44459;43.522;24.470;2022-07-29T01:49:15;100214.81;;;21.61;84.57
57572;BME280;44459;43.522;24.470;2022-07-29T01:54:18;100203.06;;;21.64;83.96
57572;BME280;44459;43.522;24.470;2022-07-29T01:56:45;100205.06;;;21.58;84.28
57572;BME280;44459;43.522;24.470;2022-07-29T01:59:12;100195.38;;;21.54;84.60
57572;BME280;44459;43.522;24.470;2022-07-29T02:01:37;100199.72;;;21.57;84.41
57572;BME280;44459;43.522;24.470;2022-07-29T02:04:05;100201.19;;;21.66;84.03
57572;BME280;44459;43.522;24.470;2022-07-29T02:06:32;100202.50;;;21.77;84.51
57572;BME280;44459;43.522;24.470;2022-07-29T02:08:58;100203.13;;;21.84;84.06
57572;BME280;44459;43.522;24.470;2022-07-29T02:11:24;100205.53;;;21.91;83.48
57572;BME280;44459;43.522;24.470;2022-07-29T02:13:49;100206.38;;;21.93;83.15
57572;BME280;44459;43.522;24.470;2022-07-29T02:16:17;100205.41;;;21.94;82.79
57572;BME280;44459;43.522;24.470;2022-07-29T02:18:46;100199.25;;;21.92;82.53
57572;BME280;44459;43.522;24.470;2022-07-29T02:21:14;100205.63;;;21.88;82.40
57572;BME280;44459;43.522;24.470;2022-07-29T02:23:43;100212.78;;;21.89;82.38
57572;BME280;44459;43.522;24.470;2022-07-29T02:26:10;100204.53;;;21.94;82.54
57572;BME280;44459;43.522;24.470;2022-07-29T02:28:35;100209.88;;;21.95;82.92
57572;BME280;44459;43.522;24.470;2022-07-29T02:31:01;100212.41;;;21.98;82.58
57572;BME280;44459;43.522;24.470;2022-07-29T02:33:27;100212.28;;;22.01;82.36
57572;BME280;44459;43.522;24.470;2022-07-29T02:35:55;100222.06;;;22.04;82.34
57572;BME280;44459;43.522;24.470;2022-07-29T02:38:21;100208.66;;;22.02;82.01
57572;BME280;44459;43.522;24.470;2022-07-29T02:41:10;100209.59;;;22.01;82.23
57572;BME280;44459;43.522;24.470;2022-07-29T02:43:37;100214.06;;;22.02;82.30
57572;BME280;44459;43.522;24.470;2022-07-29T02:46:04;100209.34;;;22.07;82.61
57572;BME280;44459;43.522;24.470;2022-07-29T02:48:41;100207.47;;;22.10;82.97
57572;BME280;44459;43.522;24.470;2022-07-29T02:51:08;100210.22;;;22.08;82.30
57572;BME280;44459;43.522;24.470;2022-07-29T02:53:36;100210.16;;;22.10;82.00
57572;BME280;44459;43.522;24.470;2022-07-29T02:56:08;100212.91;;;22.08;81.90
57572;BME280;44459;43.522;24.470;2022-07-29T02:58:38;100205.81;;;22.07;82.53
57572;BME280;44459;43.522;24.470;2022-07-29T03:01:04;100198.72;;;22.04;82.54
57572;BME280;44459;43.522;24.470;2022-07-29T03:03:34;100199.69;;;22.03;82.57
57572;BME280;44459;43.522;24.470;2022-07-29T03:06:01;100207.78;;;22.02;82.85
57572;BME280;44459;43.522;24.470;2022-07-29T03:08:28;100202.41;;;22.02;82.52
57572;BME280;44459;43.522;24.470;2022-07-29T03:10:54;100211.41;;;22.01;82.64
57572;BME280;44459;43.522;24.470;2022-07-29T03:13:20;100215.09;;;21.98;82.01
57572;BME280;44459;43.522;24.470;2022-07-29T03:15:46;100226.91;;;21.94;82.53
57572;BME280;44459;43.522;24.470;2022-07-29T03:18:12;100228.03;;;21.89;82.98
57572;BME280;44459;43.522;24.470;2022-07-29T03:20:38;100227.13;;;21.88;82.87
57572;BME280;44459;43.522;24.470;2022-07-29T03:23:04;100227.25;;;21.85;83.13
57572;BME280;44459;43.522;24.470;2022-07-29T03:25:29;100230.00;;;21.84;83.26
57572;BME280;44459;43.522;24.470;2022-07-29T03:27:54;100225.50;;;21.84;83.44
57572;BME280;44459;43.522;24.470;2022-07-29T03:30:21;100225.50;;;21.84;83.23
57572;BME280;44459;43.522;24.470;2022-07-29T03:32:46;100226.50;;;21.82;82.99
57572;BME280;44459;43.522;24.470;2022-07-29T03:35:12;100222.03;;;21.82;83.34
57572;BME280;44459;43.522;24.470;2022-07-29T03:37:37;100225.38;;;21.87;83.59
57572;BME280;44459;43.522;24.470;2022-07-29T03:40:04;100230.72;;;21.89;83.48
57572;BME280;44459;43.522;24.470;2022-07-29T03:42:31;100229.38;;;21.77;83.58
57572;BME280;44459;43.522;24.470;2022-07-29T03:44:58;100220.25;;;21.81;83.91
57572;BME280;44459;43.522;24.470;2022-07-29T03:47:26;100230.72;;;21.89;84.17
57572;BME280;44459;43.522;24.470;2022-07-29T03:49:54;100235.31;;;21.85;83.18
57572;BME280;44459;43.522;24.470;2022-07-29T03:52:21;100231.41;;;21.94;83.16
57572;BME280;44459;43.522;24.470;2022-07-29T03:54:47;100231.31;;;21.97;83.10
57572;BME280;44459;43.522;24.470;2022-07-29T03:57:13;100223.00;;;22.03;83.06
57572;BME280;44459;43.522;24.470;2022-07-29T03:59:40;100219.78;;;22.15;82.81
57572;BME280;44459;43.522;24.470;2022-07-29T04:02:06;100231.25;;;22.20;82.48
57572;BME280;44459;43.522;24.470;2022-07-29T04:04:34;100231.69;;;22.31;81.87
57572;BME280;44459;43.522;24.470;2022-07-29T04:06:59;100231.72;;;22.30;82.14
57572;BME280;44459;43.522;24.470;2022-07-29T04:09:24;100220.97;;;22.30;82.54
57572;BME280;44459;43.522;24.470;2022-07-29T04:11:50;100223.94;;;22.44;81.81
57572;BME280;44459;43.522;24.470;2022-07-29T04:14:16;100224.50;;;22.32;82.13
57572;BME280;44459;43.522;24.470;2022-07-29T04:16:41;100224.69;;;22.47;81.69
57572;BME280;44459;43.522;24.470;2022-07-29T04:19:06;100222.34;;;22.60;80.51
57572;BME280;44459;43.522;24.470;2022-07-29T04:21:36;100220.47;;;22.62;80.25
57572;BME280;44459;43.522;24.470;2022-07-29T04:24:01;100221.16;;;22.67;80.48
57572;BME280;44459;43.522;24.470;2022-07-29T04:26:27;100227.44;;;22.68;80.47
57572;BME280;44459;43.522;24.470;2022-07-29T04:28:52;100229.25;;;22.87;80.58
57572;BME280;44459;43.522;24.470;2022-07-29T04:31:17;100229.09;;;23.11;80.62
57572;BME280;44459;43.522;24.470;2022-07-29T04:33:43;100232.06;;;23.25;79.33
57572;BME280;44459;43.522;24.470;2022-07-29T04:36:08;100232.03;;;23.45;77.75
57572;BME280;44459;43.522;24.470;2022-07-29T04:38:35;100225.06;;;23.60;77.07
57572;BME280;44459;43.522;24.470;2022-07-29T04:41:01;100220.88;;;23.71;78.68
57572;BME280;44459;43.522;24.470;2022-07-29T04:43:26;100228.53;;;23.80;78.25
57572;BME280;44459;43.522;24.470;2022-07-29T04:45:51;100225.81;;;23.99;77.88
57572;BME280;44459;43.522;24.470;2022-07-29T04:48:17;100222.47;;;24.13;74.53
57572;BME280;44459;43.522;24.470;2022-07-29T04:50:42;100219.50;;;24.19;75.20
57572;BME280;44459;43.522;24.470;2022-07-29T04:53:07;100222.75;;;24.25;76.07
57572;BME280;44459;43.522;24.470;2022-07-29T04:55:33;100228.88;;;24.46;75.46
57572;BME280;44459;43.522;24.470;2022-07-29T04:57:58;100241.03;;;24.54;73.48
57572;BME280;44459;43.522;24.470;2022-07-29T05:00:24;100246.84;;;24.64;72.20
57572;BME280;44459;43.522;24.470;2022-07-29T05:02:49;100250.56;;;24.79;73.18
57572;BME280;44459;43.522;24.470;2022-07-29T05:05:14;100250.69;;;24.94;73.11
57572;BME280;44459;43.522;24.470;2022-07-29T05:07:40;100255.34;;;25.08;71.25
57572;BME280;44459;43.522;24.470;2022-07-29T05:10:06;100256.38;;;25.23;70.57
57572;BME280;44459;43.522;24.470;2022-07-29T05:12:31;100254.66;;;25.37;70.21
57572;BME280;44459;43.522;24.470;2022-07-29T05:14:56;100255.69;;;25.52;68.52
57572;BME280;44459;43.522;24.470;2022-07-29T05:17:22;100256.75;;;25.65;68.79
57572;BME280;44459;43.522;24.470;2022-07-29T05:19:47;100259.72;;;25.76;66.91
57572;BME280;44459;43.522;24.470;2022-07-29T05:22:12;100259.31;;;25.84;67.21
57572;BME280;44459;43.522;24.470;2022-07-29T05:24:38;100255.28;;;25.91;68.12
57572;BME280;44459;43.522;24.470;2022-07-29T05:27:03;100275.72;;;26.12;69.00
57572;BME280;44459;43.522;24.470;2022-07-29T05:29:28;100272.63;;;26.20;67.40
57572;BME280;44459;43.522;24.470;2022-07-29T05:31:54;100275.03;;;26.24;66.04
57572;BME280;44459;43.522;24.470;2022-07-29T05:34:19;100270.31;;;26.28;65.73
57572;BME280;44459;43.522;24.470;2022-07-29T05:36:45;100271.50;;;26.24;65.30
57572;BME280;44459;43.522;24.470;2022-07-29T05:39:10;100269.56;;;26.26;66.32
57572;BME280;44459;43.522;24.470;2022-07-29T05:41:36;100267.38;;;26.32;67.01
57572;BME280;44459;43.522;24.470;2022-07-29T05:44:01;100264.09;;;26.41;66.10
57572;BME280;44459;43.522;24.470;2022-07-29T05:46:27;100276.50;;;26.45;64.92
57572;BME280;44459;43.522;24.470;2022-07-29T05:48:52;100271.72;;;26.50;65.21
57572;BME280;44459;43.522;24.470;2022-07-29T05:51:17;100280.16;;;26.60;64.76
57572;BME280;44459;43.522;24.470;2022-07-29T05:53:43;100277.06;;;26.66;64.13
57572;BME280;44459;43.522;24.470;2022-07-29T05:56:09;100277.59;;;26.73;64.38
57572;BME280;44459;43.522;24.470;2022-07-29T05:58:35;100284.06;;;26.86;63.63
57572;BME280;44459;43.522;24.470;2022-07-29T06:01:01;100285.34;;;26.94;64.13
57572;BME280;44459;43.522;24.470;2022-07-29T06:03:27;100288.34;;;27.04;64.81
57572;BME280;44459;43.522;24.470;2022-07-29T06:05:52;100286.34;;;27.22;65.62
57572;BME280;44459;43.522;24.470;2022-07-29T06:08:17;100290.09;;;27.35;63.79
57572;BME280;44459;43.522;24.470;2022-07-29T06:10:43;100283.19;;;27.29;61.95
57572;BME280;44459;43.522;24.470;2022-07-29T06:13:08;100276.97;;;27.13;62.23
57572;BME280;44459;43.522;24.470;2022-07-29T06:15:34;100282.03;;;27.33;62.74
57572;BME280;44459;43.522;24.470;2022-07-29T06:17:59;100286.97;;;27.41;62.84
57572;BME280;44459;43.522;24.470;2022-07-29T06:20:25;100288.84;;;27.55;61.65
57572;BME280;44459;43.522;24.470;2022-07-29T06:22:51;100287.03;;;27.69;62.48
57572;BME280;44459;43.522;24.470;2022-07-29T06:25:17;100278.28;;;27.78;62.26
57572;BME280;44459;43.522;24.470;2022-07-29T06:27:42;100279.56;;;27.87;62.16
57572;BME280;44459;43.522;24.470;2022-07-29T06:30:07;100279.41;;;28.02;62.83
57572;BME280;44459;43.522;24.470;2022-07-29T06:32:33;100281.25;;;28.16;63.02
57572;BME280;44459;43.522;24.470;2022-07-29T06:34:58;100277.97;;;28.25;63.85
57572;BME280;44459;43.522;24.470;2022-07-29T06:37:24;100281.94;;;28.20;60.41
57572;BME280;44459;43.522;24.470;2022-07-29T06:39:49;100278.25;;;28.21;58.82
57572;BME280;44459;43.522;24.470;2022-07-29T06:42:34;100279.69;;;28.26;59.29
57572;BME280;44459;43.522;24.470;2022-07-29T06:44:59;100278.44;;;28.32;59.98
57572;BME280;44459;43.522;24.470;2022-07-29T06:47:25;100277.03;;;28.39;60.68
57572;BME280;44459;43.522;24.470;2022-07-29T06:49:50;100268.69;;;28.42;60.78
57572;BME280;44459;43.522;24.470;2022-07-29T06:52:15;100269.69;;;28.54;58.83
57572;BME280;44459;43.522;24.470;2022-07-29T06:54:40;100275.19;;;28.66;59.82
57572;BME280;44459;43.522;24.470;2022-07-29T06:57:12;100278.63;;;28.82;59.46
57572;BME280;44459;43.522;24.470;2022-07-29T06:59:38;100281.06;;;28.19;57.45
57572;BME280;44459;43.522;24.470;2022-07-29T07:02:03;100271.28;;;28.43;58.19
57572;BME280;44459;43.522;24.470;2022-07-29T07:04:28;100279.28;;;28.59;57.32
57572;BME280;44459;43.522;24.470;2022-07-29T07:06:54;100275.75;;;28.71;58.58
57572;BME280;44459;43.522;24.470;2022-07-29T07:09:20;100276.13;;;28.79;58.37
57572;BME280;44459;43.522;24.470;2022-07-29T07:11:45;100272.00;;;28.86;57.14
57572;BME280;44459;43.522;24.470;2022-07-29T07:14:11;100274.41;;;28.91;58.25
57572;BME280;44459;43.522;24.470;2022-07-29T07:16:36;100276.28;;;29.03;57.08
57572;BME280;44459;43.522;24.470;2022-07-29T07:19:01;100278.53;;;28.84;55.22
57572;BME280;44459;43.522;24.470;2022-07-29T07:21:27;100276.94;;;29.07;57.84
57572;BME280;44459;43.522;24.470;2022-07-29T07:23:52;100271.00;;;29.27;57.61
57572;BME280;44459;43.522;24.470;2022-07-29T07:26:18;100269.47;;;29.48;58.18
57572;BME280;44459;43.522;24.470;2022-07-29T07:28:43;100270.66;;;29.69;54.82
57572;BME280;44459;43.522;24.470;2022-07-29T07:31:08;100273.47;;;29.93;57.03
57572;BME280;44459;43.522;24.470;2022-07-29T07:33:34;100268.88;;;30.06;54.89
57572;BME280;44459;43.522;24.470;2022-07-29T07:35:59;100274.81;;;29.87;53.52
57572;BME280;44459;43.522;24.470;2022-07-29T07:38:25;100273.38;;;29.69;53.34
57572;BME280;44459;43.522;24.470;2022-07-29T07:40:50;100268.03;;;29.80;52.76
57572;BME280;44459;43.522;24.470;2022-07-29T07:43:15;100266.88;;;29.84;52.94
57572;BME280;44459;43.522;24.470;2022-07-29T07:45:41;100267.38;;;30.02;54.08
57572;BME280;44459;43.522;24.470;2022-07-29T07:48:06;100273.66;;;30.15;51.84
57572;BME280;44459;43.522;24.470;2022-07-29T07:50:31;100262.78;;;30.39;52.16
57572;BME280;44459;43.522;24.470;2022-07-29T07:52:57;100260.38;;;30.47;51.61
57572;BME280;44459;43.522;24.470;2022-07-29T07:55:22;100266.53;;;30.25;51.51
57572;BME280;44459;43.522;24.470;2022-07-29T07:57:48;100260.69;;;30.66;51.09
57572;BME280;44459;43.522;24.470;2022-07-29T08:00:13;100255.78;;;30.82;53.33
57572;BME280;44459;43.522;24.470;2022-07-29T08:02:39;100263.59;;;31.11;50.89
57572;BME280;44459;43.522;24.470;2022-07-29T08:05:05;100271.34;;;31.28;50.28
57572;BME280;44459;43.522;24.470;2022-07-29T08:07:31;100266.88;;;31.38;51.90
57572;BME280;44459;43.522;24.470;2022-07-29T08:09:57;100262.97;;;31.53;51.44
57572;BME280;44459;43.522;24.470;2022-07-29T08:12:22;100265.22;;;31.70;51.30
57572;BME280;44459;43.522;24.470;2022-07-29T08:14:47;100268.31;;;31.88;48.11
57572;BME280;44459;43.522;24.470;2022-07-29T08:17:12;100259.84;;;31.91;47.22
57572;BME280;44459;43.522;24.470;2022-07-29T08:19:38;100260.22;;;31.86;46.31
57572;BME280;44459;43.522;24.470;2022-07-29T08:22:03;100259.63;;;32.05;46.27
57572;BME280;44459;43.522;24.470;2022-07-29T08:24:28;100264.44;;;32.02;48.24
57572;BME280;44459;43.522;24.470;2022-07-29T08:27:11;100266.38;;;31.22;46.03
57572;BME280;44459;43.522;24.470;2022-07-29T08:29:37;100264.41;;;30.89;48.62
57572;BME280;44459;43.522;24.470;2022-07-29T08:32:04;100268.03;;;31.01;48.66
57572;BME280;44459;43.522;24.470;2022-07-29T08:34:29;100268.59;;;31.17;47.62
57572;BME280;44459;43.522;24.470;2022-07-29T08:36:55;100259.78;;;31.24;48.16
57572;BME280;44459;43.522;24.470;2022-07-29T08:39:21;100258.53;;;31.17;47.51
57572;BME280;44459;43.522;24.470;2022-07-29T08:41:46;100257.38;;;30.98;46.17
57572;BME280;44459;43.522;24.470;2022-07-29T08:44:12;100258.91;;;31.13;47.42
57572;BME280;44459;43.522;24.470;2022-07-29T08:46:38;100250.38;;;30.59;48.17
57572;BME280;44459;43.522;24.470;2022-07-29T08:49:04;100253.00;;;30.60;50.72
57572;BME280;44459;43.522;24.470;2022-07-29T08:51:29;100242.34;;;30.92;48.18
57572;BME280;44459;43.522;24.470;2022-07-29T08:53:55;100248.31;;;30.97;47.03
57572;BME280;44459;43.522;24.470;2022-07-29T08:56:21;100246.53;;;31.31;46.52
57572;BME280;44459;43.522;24.470;2022-07-29T08:58:47;100247.34;;;31.55;46.14
57572;BME280;44459;43.522;24.470;2022-07-29T09:01:16;100237.03;;;31.70;45.68
57572;BME280;44459;43.522;24.470;2022-07-29T09:03:43;100234.13;;;31.38;44.81
57572;BME280;44459;43.522;24.470;2022-07-29T09:06:11;100237.88;;;31.37;45.84
57572;BME280;44459;43.522;24.470;2022-07-29T09:08:37;100228.31;;;31.42;46.73
57572;BME280;44459;43.522;24.470;2022-07-29T09:11:03;100220.28;;;31.74;44.70
57572;BME280;44459;43.522;24.470;2022-07-29T09:13:29;100232.16;;;32.18;46.37
57572;BME280;44459;43.522;24.470;2022-07-29T09:15:54;100226.44;;;32.64;43.45
57572;BME280;44459;43.522;24.470;2022-07-29T09:18:36;100222.72;;;32.85;42.18
57572;BME280;44459;43.522;24.470;2022-07-29T09:21:02;100226.94;;;32.89;41.92
57572;BME280;44459;43.522;24.470;2022-07-29T09:24:09;100229.09;;;32.86;44.02
57572;BME280;44459;43.522;24.470;2022-07-29T09:26:45;100224.03;;;33.23;43.05
57572;BME280;44459;43.522;24.470;2022-07-29T09:29:14;100216.22;;;33.39;40.35
57572;BME280;44459;43.522;24.470;2022-07-29T09:31:41;100220.75;;;33.59;42.04
57572;BME280;44459;43.522;24.470;2022-07-29T09:34:08;100222.22;;;33.94;42.23
57572;BME280;44459;43.522;24.470;2022-07-29T09:39:05;100221.06;;;33.96;37.93
57572;BME280;44459;43.522;24.470;2022-07-29T09:41:31;100203.50;;;34.08;38.51
57572;BME280;44459;43.522;24.470;2022-07-29T09:44:08;100209.31;;;34.15;40.16
57572;BME280;44459;43.522;24.470;2022-07-29T09:46:33;100210.41;;;34.03;38.53
57572;BME280;44459;43.522;24.470;2022-07-29T09:49:09;100209.00;;;33.68;38.93
57572;BME280;44459;43.522;24.470;2022-07-29T09:51:35;100204.72;;;33.85;39.23
57572;BME280;44459;43.522;24.470;2022-07-29T09:54:00;100210.31;;;34.14;40.11
57572;BME280;44459;43.522;24.470;2022-07-29T09:56:38;100206.59;;;34.34;41.52
57572;BME280;44459;43.522;24.470;2022-07-29T09:59:08;100205.59;;;34.54;38.96
57572;BME280;44459;43.522;24.470;2022-07-29T10:01:34;100194.06;;;34.60;35.91
57572;BME280;44459;43.522;24.470;2022-07-29T10:04:01;100189.16;;;34.45;38.59
57572;BME280;44459;43.522;24.470;2022-07-29T10:06:26;100181.34;;;34.59;39.32
57572;BME280;44459;43.522;24.470;2022-07-29T10:08:51;100190.31;;;34.80;41.69
57572;BME280;44459;43.522;24.470;2022-07-29T10:11:17;100180.78;;;34.84;37.58
57572;BME280;44459;43.522;24.470;2022-07-29T10:13:46;100177.44;;;35.00;39.51
57572;BME280;44459;43.522;24.470;2022-07-29T10:16:12;100180.31;;;35.18;38.55
57572;BME280;44459;43.522;24.470;2022-07-29T10:18:38;100178.38;;;35.28;35.93
57572;BME280;44459;43.522;24.470;2022-07-29T10:21:04;100180.56;;;35.24;38.61
57572;BME280;44459;43.522;24.470;2022-07-29T10:23:31;100173.63;;;35.30;38.80
57572;BME280;44459;43.522;24.470;2022-07-29T10:25:56;100173.25;;;34.96;35.29
57572;BME280;44459;43.522;24.470;2022-07-29T10:28:22;100169.19;;;35.00;35.60
57572;BME280;44459;43.522;24.470;2022-07-29T10:30:48;100171.56;;;34.57;37.40
57572;BME280;44459;43.522;24.470;2022-07-29T10:33:18;100167.22;;;34.35;35.25
57572;BME280;44459;43.522;24.470;2022-07-29T10:36:05;100174.16;;;34.29;35.27
57572;BME280;44459;43.522;24.470;2022-07-29T10:38:52;100171.69;;;34.46;34.28
57572;BME280;44459;43.522;24.470;2022-07-29T10:46:24;100148.66;;;33.99;34.83
57572;BME280;44459;43.522;24.470;2022-07-29T10:49:10;100155.13;;;33.48;35.79
57572;BME280;44459;43.522;24.470;2022-07-29T10:57:10;100142.91;;;33.01;34.85
57572;BME280;44459;43.522;24.470;2022-07-29T10:59:35;100133.31;;;33.27;38.50
57572;BME280;44459;43.522;24.470;2022-07-29T11:02:01;100128.47;;;33.80;35.83
57572;BME280;44459;43.522;24.470;2022-07-29T11:07:14;100123.59;;;34.61;35.46
57572;BME280;44459;43.522;24.470;2022-07-29T11:09:41;100125.47;;;34.51;32.03
57572;BME280;44459;43.522;24.470;2022-07-29T11:14:58;100116.53;;;34.77;33.00
57572;BME280;44459;43.522;24.470;2022-07-29T11:17:24;100112.97;;;34.67;32.35
57572;BME280;44459;43.522;24.470;2022-07-29T11:19:49;100104.28;;;34.81;31.33
57572;BME280;44459;43.522;24.470;2022-07-29T11:22:33;100114.13;;;35.21;31.25
57572;BME280;44459;43.522;24.470;2022-07-29T11:25:15;100105.75;;;35.50;33.08
57572;BME280;44459;43.522;24.470;2022-07-29T11:27:40;100104.34;;;35.73;31.68
57572;BME280;44459;43.522;24.470;2022-07-29T11:30:06;100096.44;;;35.88;31.98
57572;BME280;44459;43.522;24.470;2022-07-29T11:32:36;100097.97;;;35.72;30.05
57572;BME280;44459;43.522;24.470;2022-07-29T11:35:19;100109.13;;;35.71;29.53
57572;BME280;44459;43.522;24.470;2022-07-29T11:40:32;100096.66;;;35.76;29.54
57572;BME280;44459;43.522;24.470;2022-07-29T11:42:57;100091.72;;;35.80;31.97
57572;BME280;44459;43.522;24.470;2022-07-29T11:45:23;100082.13;;;35.84;28.55
57572;BME280;44459;43.522;24.470;2022-07-29T11:47:50;100081.50;;;35.90;28.38
57572;BME280;44459;43.522;24.470;2022-07-29T11:52:53;100074.97;;;35.19;30.19
57572;BME280;44459;43.522;24.470;2022-07-29T11:55:19;100065.25;;;35.52;29.73
57572;BME280;44459;43.522;24.470;2022-07-29T12:00:16;100056.94;;;35.89;28.48
57572;BME280;44459;43.522;24.470;2022-07-29T12:02:45;100070.69;;;36.06;28.71
57572;BME280;44459;43.522;24.470;2022-07-29T12:05:10;100067.78;;;36.08;27.59
57572;BME280;44459;43.522;24.470;2022-07-29T12:07:36;100065.13;;;36.16;27.31
57572;BME280;44459;43.522;24.470;2022-07-29T12:10:02;100069.66;;;36.25;27.42
57572;BME280;44459;43.522;24.470;2022-07-29T12:12:28;100063.69;;;36.29;27.92
57572;BME280;44459;43.522;24.470;2022-07-29T12:14:53;100064.72;;;36.28;28.75
57572;BME280;44459;43.522;24.470;2022-07-29T12:17:27;100064.56;;;36.30;26.84
57572;BME280;44459;43.522;24.470;2022-07-29T12:19:53;100064.06;;;36.34;28.77
57572;BME280;44459;43.522;24.470;2022-07-29T12:22:25;100065.09;;;36.51;28.78
57572;BME280;44459;43.522;24.470;2022-07-29T12:24:51;100052.13;;;36.61;27.74
57572;BME280;44459;43.522;24.470;2022-07-29T12:27:16;100044.19;;;35.70;26.56
57572;BME280;44459;43.522;24.470;2022-07-29T12:29:42;100047.09;;;36.04;29.47
57572;BME280;44459;43.522;24.470;2022-07-29T12:32:07;100040.91;;;36.37;27.03
57572;BME280;44459;43.522;24.470;2022-07-29T12:34:33;100044.97;;;36.51;27.65
57572;BME280;44459;43.522;24.470;2022-07-29T12:36:59;100038.69;;;36.58;27.27
57572;BME280;44459;43.522;24.470;2022-07-29T12:39:25;100033.22;;;36.66;26.15
57572;BME280;44459;43.522;24.470;2022-07-29T12:41:52;100033.06;;;36.24;28.07
57572;BME280;44459;43.522;24.470;2022-07-29T12:44:19;100025.66;;;36.25;26.89
57572;BME280;44459;43.522;24.470;2022-07-29T12:46:44;100014.09;;;36.57;26.67
57572;BME280;44459;43.522;24.470;2022-07-29T12:49:20;100019.88;;;36.54;26.33
57572;BME280;44459;43.522;24.470;2022-07-29T12:51:46;100013.44;;;36.45;26.32
57572;BME280;44459;43.522;24.470;2022-07-29T12:54:14;100006.56;;;36.67;27.83
57572;BME280;44459;43.522;24.470;2022-07-29T12:56:40;100003.59;;;36.86;27.93
57572;BME280;44459;43.522;24.470;2022-07-29T12:59:19;100007.09;;;36.96;27.62
57572;BME280;44459;43.522;24.470;2022-07-29T13:01:45;99998.38;;;37.09;27.83
57572;BME280;44459;43.522;24.470;2022-07-29T13:04:23;100003.81;;;37.01;26.33
57572;BME280;44459;43.522;24.470;2022-07-29T13:06:48;100006.88;;;36.90;25.13
57572;BME280;44459;43.522;24.470;2022-07-29T13:09:23;100005.63;;;36.84;25.51
57572;BME280;44459;43.522;24.470;2022-07-29T13:11:52;99990.69;;;36.87;25.66
57572;BME280;44459;43.522;24.470;2022-07-29T13:19:33;99996.22;;;37.28;25.98
57572;BME280;44459;43.522;24.470;2022-07-29T13:21:59;99995.22;;;37.46;26.43